Time;durP1;ratioP1;P1;durP2;ratioP2;P2;SDS_P1;SDS_P2;PMS_P1;PMS_P2;Temp;Humidity;BMP_temperature;BMP_pressure;BME280_temperature;BME280_humidity;BME280_pressure;Samples;Min_cycle;Max_cycle;Signal;HPM_P1;HPM_P2
2023/07/23 07:48:39;;;;;;;;;13.00;12.75;;;;;;;;5103410;27;13470;-70
2023/07/23 07:51:07;;;;;;;;;10.00;10.00;;;;;;;;5086658;28;8827;-74
2023/07/23 07:53:33;;;;;;;;;9.00;9.00;;;;;;;;5086240;28;8798;-76
2023/07/23 07:55:59;;;;;;;;;9.00;8.00;;;;;;;;5084581;28;8968;-72
2023/07/23 07:58:25;;;;;;;;;8.33;8.33;;;;;;;;5085262;28;8798;-74
2023/07/23 08:00:57;;;;;;;;;9.00;9.00;;;;;;;;5086700;28;8798;-73
2023/07/23 08:03:25;;;;;;;;;8.25;8.25;;;;;;;;5086885;28;8794;-74
2023/07/23 08:05:51;;;;;;;;;6.25;6.00;;;;;;;;5086318;28;8798;-76
2023/07/23 08:08:19;;;;;;;;;10.00;8.00;;;;;;;;5086443;28;8823;-72
2023/07/23 08:10:45;;;;;;;;;8.75;8.75;;;;;;;;5086532;28;8802;-76
2023/07/23 08:13:11;;;;;;;;;6.75;6.75;;;;;;;;5085151;28;8925;-77
2023/07/23 08:15:36;;;;;;;;;7.00;7.00;;;;;;;;5072388;28;8956;-76
2023/07/23 08:18:02;;;;;;;;;8.25;7.25;;;;;;;;5079346;28;8806;-77
2023/07/23 08:20:27;;;;;;;;;2.25;2.00;;;;;;;;5083656;28;8802;-71
2023/07/23 08:22:53;;;;;;;;;8.50;7.25;;;;;;;;5089753;28;8827;-72
2023/07/23 08:25:19;;;;;;;;;7.50;7.50;;;;;;;;5083547;28;9196;-76
2023/07/23 08:27:45;;;;;;;;;6.75;6.25;;;;;;;;5084202;28;11464;-76
2023/07/23 08:30:10;;;;;;;;;7.20;6.80;;;;;;;;5085808;28;8825;-74
2023/07/23 08:32:36;;;;;;;;;9.25;8.00;;;;;;;;5083885;28;8826;-73
2023/07/23 08:35:02;;;;;;;;;9.00;9.00;;;;;;;;5085464;28;8782;-73
2023/07/23 08:37:28;;;;;;;;;10.80;9.00;;;;;;;;5085632;28;8787;-71
2023/07/23 08:39:53;;;;;;;;;8.75;8.75;;;;;;;;5085741;28;9548;-68
2023/07/23 08:42:24;;;;;;;;;8.00;8.00;;;;;;;;5085509;28;9513;-68
2023/07/23 08:44:49;;;;;;;;;8.40;8.40;;;;;;;;5085645;28;8778;-71
2023/07/23 08:47:15;;;;;;;;;9.25;8.75;;;;;;;;5087033;28;8933;-67
2023/07/23 08:49:42;;;;;;;;;7.00;7.00;;;;;;;;5085857;28;8803;-71
2023/07/23 08:52:10;;;;;;;;;12.60;9.20;;;;;;;;5058838;28;8862;-72
2023/07/23 08:54:36;;;;;;;;;9.80;8.20;;;;;;;;5046088;28;8834;-70
2023/07/23 08:57:03;;;;;;;;;8.40;8.40;;;;;;;;5062916;28;8898;-71
2023/07/23 08:59:30;;;;;;;;;11.20;11.20;;;;;;;;5052543;28;8810;-71
2023/07/23 09:01:56;;;;;;;;;11.80;11.20;;;;;;;;5049932;28;8802;-72
2023/07/23 09:04:21;;;;;;;;;10.80;10.80;;;;;;;;5049633;28;8802;-71
2023/07/23 09:06:47;;;;;;;;;8.25;8.25;;;;;;;;5049668;28;8872;-71
2023/07/23 09:09:13;;;;;;;;;9.00;9.00;;;;;;;;5049817;28;8798;-69
2023/07/23 09:11:38;;;;;;;;;9.00;9.00;;;;;;;;5050739;28;9637;-70
2023/07/23 09:14:08;;;;;;;;;11.00;9.75;;;;;;;;5051738;28;8840;-70
2023/07/23 09:16:37;;;;;;;;;8.20;8.00;;;;;;;;5052979;28;8786;-71
2023/07/23 09:19:03;;;;;;;;;8.20;8.20;;;;;;;;5071765;28;9611;-70
2023/07/23 09:21:28;;;;;;;;;8.00;8.00;;;;;;;;5071711;28;8804;-70
2023/07/23 09:23:54;;;;;;;;;7.50;7.00;;;;;;;;5071031;28;8812;-70
2023/07/23 09:26:20;;;;;;;;;10.00;9.00;;;;;;;;5071331;28;9665;-70
2023/07/23 09:28:46;;;;;;;;;11.00;9.60;;;;;;;;5071616;28;8788;-70
2023/07/23 09:31:11;;;;;;;;;8.50;8.50;;;;;;;;5071732;28;8788;-70
2023/07/23 09:33:36;;;;;;;;;10.50;9.00;;;;;;;;5068023;28;8832;-68
2023/07/23 09:36:03;;;;;;;;;13.00;11.25;;;;;;;;5071314;28;8981;-70
2023/07/23 09:38:33;;;;;;;;;10.00;9.00;;;;;;;;5053139;28;9569;-70
2023/07/23 09:40:59;;;;;;;;;10.40;10.40;;;;;;;;5071032;28;8894;-70
2023/07/23 09:43:24;;;;;;;;;11.75;10.00;;;;;;;;5071191;28;8784;-70
2023/07/23 09:45:50;;;;;;;;;8.00;8.00;;;;;;;;5086665;28;8958;-68
2023/07/23 09:48:16;;;;;;;;;8.50;8.00;;;;;;;;5070773;28;9661;-69
2023/07/23 09:50:41;;;;;;;;;11.00;9.80;;;;;;;;5071576;28;9202;-69
2023/07/23 09:53:10;;;;;;;;;8.50;8.25;;;;;;;;5071200;28;8826;-69
2023/07/23 09:55:37;;;;;;;;;7.60;7.60;;;;;;;;5070805;28;8787;-70
2023/07/23 09:58:05;;;;;;;;;10.60;8.60;;;;;;;;5073122;28;8925;-68
2023/07/23 10:00:32;;;;;;;;;9.40;9.40;;;;;;;;5071991;28;8787;-69
2023/07/23 10:02:59;;;;;;;;;11.40;11.00;;;;;;;;5070623;28;8914;-68
2023/07/23 10:05:25;;;;;;;;;10.20;9.80;;;;;;;;5071232;28;8921;-68
2023/07/23 10:07:51;;;;;;;;;8.50;8.50;;;;;;;;5069592;28;8930;-69
2023/07/23 10:10:16;;;;;;;;;9.00;8.20;;;;;;;;5070325;28;8790;-71
2023/07/23 10:12:42;;;;;;;;;8.75;8.75;;;;;;;;5068809;28;8826;-71
2023/07/23 10:15:07;;;;;;;;;11.00;11.00;;;;;;;;5070690;28;8929;-71
2023/07/23 10:17:37;;;;;;;;;14.50;14.50;;;;;;;;5070449;28;8802;-71
2023/07/23 10:20:04;;;;;;;;;12.60;10.60;;;;;;;;5069815;28;8871;-70
2023/07/23 10:22:32;;;;;;;;;9.20;8.00;;;;;;;;5070320;28;8929;-70
2023/07/23 10:24:57;;;;;;;;;9.80;8.80;;;;;;;;5070331;28;8814;-71
2023/07/23 10:27:22;;;;;;;;;10.75;8.75;;;;;;;;5070385;28;8802;-71
2023/07/23 10:30:08;;;;;;;;;9.25;8.75;;;;;;;;5070429;28;8782;-69
2023/07/23 10:32:33;;;;;;;;;11.40;10.60;;;;;;;;5065736;28;8829;-69
2023/07/23 10:34:59;;;;;;;;;11.50;9.75;;;;;;;;5069985;28;8802;-70
2023/07/23 10:37:25;;;;;;;;;12.00;11.00;;;;;;;;5068292;28;8791;-70
2023/07/23 10:39:51;;;;;;;;;7.33;7.33;;;;;;;;5068078;28;8832;-71
2023/07/23 10:42:35;;;;;;;;;12.00;11.40;;;;;;;;5068005;28;11433;-71
2023/07/23 10:45:20;;;;;;;;;11.00;11.00;;;;;;;;5066180;28;8883;-71
2023/07/23 10:47:56;;;;;;;;;12.25;11.00;;;;;;;;5062313;28;8830;-71
2023/07/23 10:50:22;;;;;;;;;13.25;13.25;;;;;;;;5069456;28;8766;-71
2023/07/23 10:52:52;;;;;;;;;13.00;9.67;;;;;;;;5070212;28;8797;-71
2023/07/23 10:55:32;;;;;;;;;14.75;14.75;;;;;;;;5069717;28;8794;-71
2023/07/23 10:57:59;;;;;;;;;13.50;10.75;;;;;;;;5069946;28;8809;-71
2023/07/23 11:00:24;;;;;;;;;14.25;12.75;;;;;;;;5070147;28;8802;-71
2023/07/23 11:02:53;;;;;;;;;11.67;11.33;;;;;;;;5070181;28;8783;-72
2023/07/23 11:05:18;;;;;;;;;15.00;13.00;;;;;;;;5069226;28;8806;-72
2023/07/23 11:08:03;;;;;;;;;12.33;12.33;;;;;;;;5069094;28;9580;-74
2023/07/23 11:10:43;;;;;;;;;14.00;13.25;;;;;;;;5067192;28;8882;-71
2023/07/23 11:13:08;;;;;;;;;14.25;13.25;;;;;;;;5067553;28;9623;-68
2023/07/23 11:15:34;;;;;;;;;12.33;12.33;;;;;;;;5069316;28;8886;-69
2023/07/23 11:17:59;;;;;;;;;13.00;13.00;;;;;;;;5067779;28;8837;-69
2023/07/23 11:20:25;;;;;;;;;15.67;12.00;;;;;;;;5068953;28;8893;-70
2023/07/23 11:22:50;;;;;;;;;11.67;11.33;;;;;;;;5069335;28;8849;-70
2023/07/23 11:25:19;;;;;;;;;12.00;11.67;;;;;;;;5070278;28;8827;-67
2023/07/23 11:27:44;;;;;;;;;16.00;15.75;;;;;;;;5067685;28;8803;-70
2023/07/23 11:30:12;;;;;;;;;13.67;12.67;;;;;;;;5067983;28;8871;-72
2023/07/23 11:32:37;;;;;;;;;15.50;13.75;;;;;;;;5067855;28;8829;-72
2023/07/23 11:35:03;;;;;;;;;14.67;13.67;;;;;;;;5067750;28;8786;-72
2023/07/23 11:37:28;;;;;;;;;17.00;14.67;;;;;;;;5067999;28;8799;-77
2023/07/23 11:39:55;;;;;;;;;15.00;12.00;;;;;;;;5067416;28;8795;-74
2023/07/23 11:42:20;;;;;;;;;15.00;14.00;;;;;;;;5068493;28;8825;-76
2023/07/23 11:45:01;;;;;;;;;12.67;12.67;;;;;;;;5068172;28;8815;-75
2023/07/23 11:47:27;;;;;;;;;16.00;16.00;;;;;;;;5066383;28;8842;-75
2023/07/23 11:49:52;;;;;;;;;9.33;8.00;;;;;;;;5068963;28;8782;-76
2023/07/23 11:52:24;;;;;;;;;15.67;15.00;;;;;;;;5068866;28;8794;-77
2023/07/23 11:54:49;;;;;;;;;17.75;16.25;;;;;;;;5068991;28;8824;-75
2023/07/23 11:57:16;;;;;;;;;14.67;13.33;;;;;;;;5068741;28;8798;-75
2023/07/23 11:59:42;;;;;;;;;15.25;14.50;;;;;;;;5068806;28;8798;-76
2023/07/23 12:02:08;;;;;;;;;15.00;13.00;;;;;;;;5068517;28;8787;-71
2023/07/23 12:04:37;;;;;;;;;15.00;13.00;;;;;;;;5068547;28;10083;-71
2023/07/23 12:07:04;;;;;;;;;13.50;12.75;;;;;;;;5068276;28;12382;-70
2023/07/23 12:09:30;;;;;;;;;14.50;13.00;;;;;;;;5068673;28;8831;-71
2023/07/23 12:11:55;;;;;;;;;15.67;15.67;;;;;;;;5068678;28;8817;-70
2023/07/23 12:14:20;;;;;;;;;14.67;13.33;;;;;;;;5068556;28;8811;-71
2023/07/23 12:16:46;;;;;;;;;15.67;15.33;;;;;;;;5064096;28;8818;-72
2023/07/23 12:19:16;;;;;;;;;11.67;11.33;;;;;;;;5069994;28;8884;-71
2023/07/23 12:21:43;;;;;;;;;16.50;14.75;;;;;;;;5068537;28;11544;-72
2023/07/23 12:24:11;;;;;;;;;14.25;14.25;;;;;;;;5068579;28;8787;-72
2023/07/23 12:26:36;;;;;;;;;13.75;12.25;;;;;;;;5067115;28;8860;-72
2023/07/23 12:29:03;;;;;;;;;15.67;15.00;;;;;;;;5068754;28;9549;-71
2023/07/23 12:31:28;;;;;;;;;15.75;13.75;;;;;;;;5070328;28;8905;-70
2023/07/23 12:33:53;;;;;;;;;17.00;17.00;;;;;;;;5069507;28;9007;-72
2023/07/23 12:36:19;;;;;;;;;19.00;17.67;;;;;;;;5071911;28;9703;-71
2023/07/23 12:38:44;;;;;;;;;17.67;16.00;;;;;;;;5069243;28;8802;-71
2023/07/23 12:41:09;;;;;;;;;14.33;14.33;;;;;;;;5072127;28;8795;-72
2023/07/23 12:43:38;;;;;;;;;20.00;17.67;;;;;;;;5071713;28;8815;-73
2023/07/23 12:46:03;;;;;;;;;15.50;14.00;;;;;;;;5071914;28;8794;-72
2023/07/23 12:48:29;;;;;;;;;16.00;15.67;;;;;;;;5071722;28;8923;-73
2023/07/23 12:50:55;;;;;;;;;15.25;14.00;;;;;;;;5075317;22;8885;-71
2023/07/23 12:53:21;;;;;;;;;18.00;16.33;;;;;;;;5052403;28;8817;-71
2023/07/23 12:55:46;;;;;;;;;13.00;13.00;;;;;;;;5051109;28;8840;-76
2023/07/23 12:58:12;;;;;;;;;16.33;15.33;;;;;;;;5052373;28;8793;-72
2023/07/23 13:00:37;;;;;;;;;13.33;12.33;;;;;;;;5052223;28;8793;-69
2023/07/23 13:03:03;;;;;;;;;14.67;14.67;;;;;;;;5051686;28;8904;-72
2023/07/23 13:05:28;;;;;;;;;13.25;13.25;;;;;;;;5051788;28;8793;-72
2023/07/23 13:07:54;;;;;;;;;15.00;14.33;;;;;;;;5052162;28;8955;-72
2023/07/23 13:10:19;;;;;;;;;15.67;14.00;;;;;;;;5052233;28;8903;-74
2023/07/23 13:12:44;;;;;;;;;18.33;17.67;;;;;;;;5050771;28;8816;-71
2023/07/23 13:15:09;;;;;;;;;18.67;17.33;;;;;;;;5050609;28;8829;-77
2023/07/23 13:17:35;;;;;;;;;16.00;16.00;;;;;;;;5052204;28;8914;-72
2023/07/23 13:20:00;;;;;;;;;13.67;13.67;;;;;;;;5051539;28;8796;-71
2023/07/23 13:22:25;;;;;;;;;17.00;16.00;;;;;;;;5050593;28;8882;-70
2023/07/23 13:24:51;;;;;;;;;18.00;17.67;;;;;;;;5051758;28;8893;-73
2023/07/23 13:27:16;;;;;;;;;19.00;17.33;;;;;;;;5051802;28;8944;-75
2023/07/23 13:29:41;;;;;;;;;19.33;17.33;;;;;;;;5051689;28;8805;-74
2023/07/23 13:32:07;;;;;;;;;18.67;18.67;;;;;;;;5051755;28;8908;-74
2023/07/23 13:34:32;;;;;;;;;19.00;17.00;;;;;;;;5051140;28;8932;-72
2023/07/23 13:36:57;;;;;;;;;21.00;20.00;;;;;;;;5050482;28;8817;-72
2023/07/23 13:39:22;;;;;;;;;24.33;23.00;;;;;;;;5051232;28;8887;-70
2023/07/23 13:41:48;;;;;;;;;25.00;19.00;;;;;;;;5047433;28;9599;-70
2023/07/23 13:44:13;;;;;;;;;24.00;21.33;;;;;;;;5050812;28;8809;-70
2023/07/23 13:46:38;;;;;;;;;21.67;21.67;;;;;;;;5050314;28;8813;-70
2023/07/23 13:49:03;;;;;;;;;23.33;22.33;;;;;;;;5050607;28;8863;-70
2023/07/23 13:51:29;;;;;;;;;22.33;19.67;;;;;;;;5062943;28;8824;-71
2023/07/23 13:53:55;;;;;;;;;25.00;23.00;;;;;;;;5052405;28;8839;-70
2023/07/23 13:56:20;;;;;;;;;22.33;20.67;;;;;;;;5052027;28;8816;-70
2023/07/23 13:58:46;;;;;;;;;24.67;22.00;;;;;;;;5070111;28;8804;-71
2023/07/23 14:01:11;;;;;;;;;22.00;19.67;;;;;;;;5070222;28;8812;-71
2023/07/23 14:03:38;;;;;;;;;26.00;24.00;;;;;;;;5070289;28;8796;-71
2023/07/23 14:06:04;;;;;;;;;26.50;23.00;;;;;;;;5069338;28;8812;-71
2023/07/23 14:08:29;;;;;;;;;23.75;19.50;;;;;;;;5070204;28;8824;-71
2023/07/23 14:10:54;;;;;;;;;22.00;20.00;;;;;;;;5069838;28;8819;-71
2023/07/23 14:13:20;;;;;;;;;22.33;22.00;;;;;;;;5069947;28;8804;-71
2023/07/23 14:15:45;;;;;;;;;21.33;19.67;;;;;;;;5069950;28;8909;-70
2023/07/23 14:18:10;;;;;;;;;18.33;17.67;;;;;;;;5069881;28;8812;-70
2023/07/23 14:20:36;;;;;;;;;20.67;20.00;;;;;;;;5069826;28;8808;-70
2023/07/23 14:23:01;;;;;;;;;24.67;20.67;;;;;;;;5069993;28;8796;-70
2023/07/23 14:25:26;;;;;;;;;14.00;8.67;;;;;;;;5068282;28;8813;-70
2023/07/23 14:27:51;;;;;;;;;20.00;17.67;;;;;;;;5068808;28;9215;-70
2023/07/23 14:30:17;;;;;;;;;19.00;18.00;;;;;;;;5069554;28;8784;-70
2023/07/23 14:32:42;;;;;;;;;19.00;16.33;;;;;;;;5069328;28;8792;-69
2023/07/23 14:35:08;;;;;;;;;18.67;14.67;;;;;;;;5069434;28;8784;-69
2023/07/23 14:37:34;;;;;;;;;20.75;19.50;;;;;;;;5069402;28;8870;-69
2023/07/23 14:39:59;;;;;;;;;23.33;19.00;;;;;;;;5068694;28;8792;-69
2023/07/23 14:42:24;;;;;;;;;23.00;19.33;;;;;;;;5069427;28;8885;-70
2023/07/23 14:44:51;;;;;;;;;19.00;17.67;;;;;;;;5069326;28;8792;-69
2023/07/23 14:47:16;;;;;;;;;22.75;18.25;;;;;;;;5069310;28;8858;-69
2023/07/23 14:49:41;;;;;;;;;17.33;16.67;;;;;;;;5069269;28;8761;-70
2023/07/23 14:52:07;;;;;;;;;20.33;19.00;;;;;;;;5069633;28;8801;-70
2023/07/23 14:54:32;;;;;;;;;20.33;19.67;;;;;;;;5069195;28;8914;-70
2023/07/23 14:56:57;;;;;;;;;16.00;16.00;;;;;;;;5068830;28;9634;-70
2023/07/23 14:59:23;;;;;;;;;21.00;18.00;;;;;;;;5069287;28;8809;-70
2023/07/23 15:01:48;;;;;;;;;17.00;17.00;;;;;;;;5069374;28;8791;-70
2023/07/23 15:04:13;;;;;;;;;18.33;17.67;;;;;;;;5069204;28;8800;-71
2023/07/23 15:06:40;;;;;;;;;18.33;16.00;;;;;;;;5068991;28;8796;-71
2023/07/23 15:09:05;;;;;;;;;17.75;17.25;;;;;;;;5066154;28;8788;-71
2023/07/23 15:11:31;;;;;;;;;19.00;17.00;;;;;;;;5069172;28;8820;-71
2023/07/23 15:13:56;;;;;;;;;24.33;18.67;;;;;;;;5050901;28;8963;-71
2023/07/23 15:16:22;;;;;;;;;19.00;15.00;;;;;;;;5069049;28;8910;-71
2023/07/23 15:18:48;;;;;;;;;11.00;11.00;;;;;;;;5069104;28;8838;-71
2023/07/23 15:21:13;;;;;;;;;16.75;14.00;;;;;;;;5068901;28;8800;-70
2023/07/23 15:23:39;;;;;;;;;17.67;15.67;;;;;;;;5068990;28;8792;-71
2023/07/23 15:26:04;;;;;;;;;19.67;16.33;;;;;;;;5068539;28;8870;-70
2023/07/23 15:28:31;;;;;;;;;21.00;19.33;;;;;;;;5068661;28;8893;-70
2023/07/23 15:30:59;;;;;;;;;19.75;17.50;;;;;;;;5068797;28;8788;-71
2023/07/23 15:33:24;;;;;;;;;22.00;17.25;;;;;;;;5068717;28;8835;-70
2023/07/23 15:35:49;;;;;;;;;16.00;16.00;;;;;;;;5068825;28;8788;-71
2023/07/23 15:38:14;;;;;;;;;17.33;15.33;;;;;;;;5068849;28;8927;-70
2023/07/23 15:40:40;;;;;;;;;17.00;17.00;;;;;;;;5068610;28;8929;-70
2023/07/23 15:43:05;;;;;;;;;19.67;17.67;;;;;;;;5069031;28;8803;-71
2023/07/23 15:45:31;;;;;;;;;18.00;16.00;;;;;;;;5069142;28;8831;-71
2023/07/23 15:47:56;;;;;;;;;20.00;18.33;;;;;;;;5068771;28;8836;-71
2023/07/23 15:50:21;;;;;;;;;17.67;15.33;;;;;;;;5067329;28;8832;-71
2023/07/23 15:52:47;;;;;;;;;19.67;17.33;;;;;;;;5068330;28;8796;-70
2023/07/23 15:55:12;;;;;;;;;19.00;15.67;;;;;;;;5068585;28;8784;-70
2023/07/23 15:57:38;;;;;;;;;20.00;16.00;;;;;;;;5068651;28;8800;-72
2023/07/23 16:00:03;;;;;;;;;23.00;19.00;;;;;;;;5068433;28;8800;-69
2023/07/23 16:02:29;;;;;;;;;17.33;16.33;;;;;;;;5050453;28;8812;-73
